Time;durP1;ratioP1;P1;durP2;ratioP2;P2;SDS_P1;SDS_P2;PMS_P1;PMS_P2;Temp;Humidity;BMP_temperature;BMP_pressure;BME280_temperature;BME280_humidity;BME280_pressure;Samples;Min_cycle;Max_cycle;Signal;HPM_P1;HPM_P2
2022/01/20 00:01:41;;;;;;;11.57;4.85;;;;;;;;;;5012928;28;100057;-75
2022/01/20 00:04:29;;;;;;;12.50;5.20;;;;;;;;;;5030670;28;101548;-74
2022/01/20 00:26:14;;;;;;;9.68;4.95;;;;;;;;;;5033466;27;99954;-74
2022/01/20 00:28:47;;;;;;;9.55;4.78;;;;;;;;;;5036678;27;100078;-74
2022/01/20 00:33:46;;;;;;;11.75;5.07;;;;;;;;;;5018390;28;101076;-74
2022/01/20 00:38:43;;;;;;;9.43;4.35;;;;;;;;;;5002164;28;100104;-74
2022/01/20 00:41:15;;;;;;;10.80;4.20;;;;;;;;;;4985196;28;100408;-74
2022/01/20 00:43:42;;;;;;;7.38;3.97;;;;;;;;;;5031517;28;100986;-74
2022/01/20 00:46:09;;;;;;;9.65;4.93;;;;;;;;;;5001303;28;100178;-74
2022/01/20 00:48:36;;;;;;;8.52;3.80;;;;;;;;;;5036676;27;100055;-74
2022/01/20 00:51:03;;;;;;;8.73;4.55;;;;;;;;;;5000186;28;100784;-73
2022/01/20 00:53:30;;;;;;;12.43;4.80;;;;;;;;;;5015561;28;101797;-74
2022/01/20 00:55:56;;;;;;;7.90;4.00;;;;;;;;;;5015032;28;100145;-73
2022/01/20 00:58:24;;;;;;;9.63;4.47;;;;;;;;;;5015386;28;100077;-73
2022/01/20 01:00:50;;;;;;;9.27;3.97;;;;;;;;;;4981061;28;100218;-74
2022/01/20 01:03:17;;;;;;;8.95;3.83;;;;;;;;;;4997338;28;103957;-73
2022/01/20 01:06:02;;;;;;;10.68;4.50;;;;;;;;;;4998280;28;100101;-73
2022/01/20 01:08:29;;;;;;;9.05;4.00;;;;;;;;;;5035580;27;99956;-74
2022/01/20 01:10:56;;;;;;;8.25;4.15;;;;;;;;;;5017632;28;101337;-74
2022/01/20 01:13:25;;;;;;;8.27;4.05;;;;;;;;;;5034381;28;100551;-73
2022/01/20 01:15:52;;;;;;;9.45;4.63;;;;;;;;;;5017752;27;100042;-74
2022/01/20 01:23:36;;;;;;;9.77;4.03;;;;;;;;;;5017594;28;100733;-74
2022/01/20 01:26:09;;;;;;;8.38;3.75;;;;;;;;;;5001657;28;100047;-74
2022/01/20 01:28:36;;;;;;;9.90;4.07;;;;;;;;;;5034468;28;100307;-74
2022/01/20 01:33:55;;;;;;;8.68;4.43;;;;;;;;;;5019702;28;101168;-76
2022/01/20 01:36:24;;;;;;;7.97;4.20;;;;;;;;;;4999861;28;100107;-75
2022/01/20 01:38:51;;;;;;;8.18;3.80;;;;;;;;;;5018321;28;99980;-74
2022/01/20 01:41:28;;;;;;;9.25;4.38;;;;;;;;;;5016424;28;100323;-76
2022/01/20 01:44:06;;;;;;;11.90;4.50;;;;;;;;;;5032914;28;101293;-74
2022/01/20 01:46:35;;;;;;;7.90;3.83;;;;;;;;;;5003335;28;99929;-74
2022/01/20 01:49:03;;;;;;;11.10;4.45;;;;;;;;;;5034121;28;100080;-74
2022/01/20 01:51:30;;;;;;;7.70;3.70;;;;;;;;;;5000204;28;102830;-74
2022/01/20 01:53:57;;;;;;;12.98;4.38;;;;;;;;;;5000755;28;100503;-74
2022/01/20 01:56:24;;;;;;;7.80;3.75;;;;;;;;;;5033498;28;100187;-74
2022/01/20 01:58:54;;;;;;;7.43;3.40;;;;;;;;;;5034273;28;100089;-75
2022/01/20 02:01:56;;;;;;;8.25;3.78;;;;;;;;;;5020631;28;100341;-74
2022/01/20 02:04:24;;;;;;;7.72;3.42;;;;;;;;;;5028915;28;101713;-74
2022/01/20 02:18:36;;;;;;;8.45;3.13;;;;;;;;;;5006782;28;101908;-74
2022/01/20 02:20:57;;;;;;;7.93;3.45;;;;;;;;;;5021100;28;100116;-74
2022/01/20 02:23:26;;;;;;;8.27;3.88;;;;;;;;;;4999696;28;100177;-75
2022/01/20 02:25:53;;;;;;;6.72;3.35;;;;;;;;;;5000867;28;100560;-74
2022/01/20 02:28:20;;;;;;;8.32;3.40;;;;;;;;;;5015916;28;100085;-74
2022/01/20 02:30:47;;;;;;;6.35;3.20;;;;;;;;;;5016617;28;100310;-74
2022/01/20 02:33:19;;;;;;;7.25;3.25;;;;;;;;;;5015894;28;100203;-74
2022/01/20 02:35:53;;;;;;;7.82;2.97;;;;;;;;;;4999725;28;103021;-74
2022/01/20 02:46:37;;;;;;;9.90;3.90;;;;;;;;;;5018584;28;100653;-74
2022/01/20 02:49:07;;;;;;;9.02;3.67;;;;;;;;;;5016654;28;100009;-74
2022/01/20 02:51:35;;;;;;;8.60;4.07;;;;;;;;;;5016695;28;100115;-74
2022/01/20 02:54:03;;;;;;;6.50;3.60;;;;;;;;;;5016036;28;100106;-74
2022/01/20 02:56:30;;;;;;;9.43;3.15;;;;;;;;;;5032754;28;100612;-73
2022/01/20 02:58:56;;;;;;;6.70;3.30;;;;;;;;;;5015683;28;99967;-74
2022/01/20 03:05:53;;;;;;;8.63;3.83;;;;;;;;;;5033221;28;100080;-74
2022/01/20 03:08:21;;;;;;;9.25;3.75;;;;;;;;;;4996318;28;100667;-74
2022/01/20 03:10:47;;;;;;;10.70;3.78;;;;;;;;;;5012823;28;100025;-74
2022/01/20 03:13:15;;;;;;;9.48;3.78;;;;;;;;;;5012844;28;100176;-74
2022/01/20 03:15:43;;;;;;;7.95;4.28;;;;;;;;;;4979375;28;100200;-74
2022/01/20 03:18:10;;;;;;;9.05;3.92;;;;;;;;;;4996173;28;100586;-74
2022/01/20 03:20:36;;;;;;;7.78;3.97;;;;;;;;;;5029675;28;99922;-74
2022/01/20 03:23:03;;;;;;;9.55;4.03;;;;;;;;;;5032710;28;100097;-74
2022/01/20 03:25:30;;;;;;;7.88;3.67;;;;;;;;;;4998808;28;100250;-74
2022/01/20 03:27:58;;;;;;;8.52;3.60;;;;;;;;;;4999323;28;100825;-74
2022/01/20 03:30:26;;;;;;;10.07;4.03;;;;;;;;;;5032603;28;99868;-74
2022/01/20 03:32:54;;;;;;;7.70;4.00;;;;;;;;;;5016984;28;99954;-74
2022/01/20 03:35:21;;;;;;;6.45;3.22;;;;;;;;;;5032133;28;100145;-74
2022/01/20 03:38:06;;;;;;;8.65;3.75;;;;;;;;;;5032165;28;100630;-74
2022/01/20 03:40:33;;;;;;;6.43;3.15;;;;;;;;;;5016052;28;99826;-74
2022/01/20 03:43:00;;;;;;;8.75;4.10;;;;;;;;;;5032288;28;100017;-74
2022/01/20 03:45:28;;;;;;;9.32;4.15;;;;;;;;;;5014764;28;100191;-74
2022/01/20 03:47:59;;;;;;;13.18;4.00;;;;;;;;;;4998882;28;101009;-74
2022/01/20 03:53:11;;;;;;;8.18;4.05;;;;;;;;;;5032783;28;99918;-73
2022/01/20 03:55:41;;;;;;;9.90;4.40;;;;;;;;;;4995455;28;102075;-74
2022/01/20 03:58:11;;;;;;;10.85;4.07;;;;;;;;;;5032136;28;100683;-73
2022/01/20 04:00:43;;;;;;;8.80;4.32;;;;;;;;;;5014741;28;100072;-74
2022/01/20 04:03:19;;;;;;;7.45;3.63;;;;;;;;;;5002926;28;100078;-74
2022/01/20 04:05:56;;;;;;;8.93;3.70;;;;;;;;;;5025654;28;100370;-74
2022/01/20 04:08:34;;;;;;;8.18;3.35;;;;;;;;;;5018918;28;101778;-73
2022/01/20 04:11:07;;;;;;;8.43;4.28;;;;;;;;;;5024220;28;100084;-73
2022/01/20 04:13:34;;;;;;;9.77;4.57;;;;;;;;;;5032198;28;100118;-74
2022/01/20 04:16:14;;;;;;;8.70;3.83;;;;;;;;;;4997991;28;100242;-73
2022/01/20 04:18:51;;;;;;;10.23;3.97;;;;;;;;;;5031600;28;100714;-73
2022/01/20 04:21:23;;;;;;;6.80;3.58;;;;;;;;;;4984070;28;101933;-74
2022/01/20 04:23:50;;;;;;;9.18;4.00;;;;;;;;;;5012116;28;101134;-73
2022/01/20 04:26:18;;;;;;;9.38;3.53;;;;;;;;;;5014900;28;100232;-73
2022/01/20 04:28:45;;;;;;;7.22;4.18;;;;;;;;;;5030571;28;100592;-73
2022/01/20 04:31:17;;;;;;;7.50;3.95;;;;;;;;;;5015912;28;100079;-74
2022/01/20 04:33:44;;;;;;;8.50;4.15;;;;;;;;;;4999037;28;100144;-74
2022/01/20 04:36:10;;;;;;;7.80;3.47;;;;;;;;;;5031016;28;100227;-74
2022/01/20 04:38:38;;;;;;;9.90;4.07;;;;;;;;;;5031562;28;103799;-73
2022/01/20 04:41:05;;;;;;;6.60;3.95;;;;;;;;;;5005359;28;100087;-73
2022/01/20 04:43:32;;;;;;;6.05;3.30;;;;;;;;;;5011466;28;100075;-74
2022/01/20 04:46:08;;;;;;;8.80;3.33;;;;;;;;;;5010690;28;100154;-74
2022/01/20 04:49:04;;;;;;;10.88;4.50;;;;;;;;;;4979168;28;101126;-73
2022/01/20 04:57:17;;;;;;;7.03;3.47;;;;;;;;;;5019519;28;100199;-73
2022/01/20 04:59:45;;;;;;;6.65;3.20;;;;;;;;;;5021049;28;100611;-73
2022/01/20 05:02:12;;;;;;;7.20;3.47;;;;;;;;;;5018136;28;100046;-73
2022/01/20 05:05:08;;;;;;;5.07;2.78;;;;;;;;;;5022379;28;100298;-73
2022/01/20 05:07:45;;;;;;;7.90;3.53;;;;;;;;;;5035097;28;100293;-74
2022/01/20 05:10:13;;;;;;;6.40;3.13;;;;;;;;;;5018016;28;100514;-73
2022/01/20 05:15:16;;;;;;;6.55;3.53;;;;;;;;;;5019081;28;100093;-74
2022/01/20 05:17:43;;;;;;;6.28;3.22;;;;;;;;;;5034228;28;100366;-73
2022/01/20 05:20:10;;;;;;;6.30;3.13;;;;;;;;;;5034103;28;100515;-73
2022/01/20 05:22:37;;;;;;;6.03;3.00;;;;;;;;;;5001096;28;100096;-73
2022/01/20 05:25:09;;;;;;;6.60;3.17;;;;;;;;;;5018580;28;100117;-73
2022/01/20 05:27:39;;;;;;;6.85;2.70;;;;;;;;;;5034178;28;100556;-73
2022/01/20 05:30:06;;;;;;;5.97;2.67;;;;;;;;;;5016788;28;100651;-73
2022/01/20 05:32:34;;;;;;;5.90;3.13;;;;;;;;;;5034183;28;100116;-73
2022/01/20 05:35:01;;;;;;;5.93;3.17;;;;;;;;;;5034310;28;99880;-73
2022/01/20 05:37:28;;;;;;;6.20;3.03;;;;;;;;;;5033503;28;100257;-73
2022/01/20 05:39:55;;;;;;;6.82;2.78;;;;;;;;;;5033872;28;101117;-74
2022/01/20 05:42:25;;;;;;;5.13;2.90;;;;;;;;;;5002461;28;99941;-73
2022/01/20 05:45:05;;;;;;;5.50;2.80;;;;;;;;;;5000239;28;100262;-73
2022/01/20 05:47:33;;;;;;;5.75;2.88;;;;;;;;;;4997039;28;100332;-73
2022/01/20 05:50:12;;;;;;;8.48;3.17;;;;;;;;;;4998832;28;100598;-73
2022/01/20 05:52:41;;;;;;;5.55;2.92;;;;;;;;;;4997324;28;100185;-74
2022/01/20 05:55:14;;;;;;;5.03;2.40;;;;;;;;;;5014282;28;100002;-74
2022/01/20 05:57:42;;;;;;;5.88;2.65;;;;;;;;;;4980661;28;100083;-74
2022/01/20 06:00:20;;;;;;;5.82;2.67;;;;;;;;;;4996640;28;100653;-74
2022/01/20 06:05:47;;;;;;;6.55;3.00;;;;;;;;;;5032847;28;100192;-74
2022/01/20 06:08:16;;;;;;;6.68;3.17;;;;;;;;;;5000665;28;100245;-73
2022/01/20 06:10:43;;;;;;;4.82;2.70;;;;;;;;;;4981827;28;100796;-74
2022/01/20 06:13:16;;;;;;;8.00;3.20;;;;;;;;;;5033589;28;100112;-74
2022/01/20 06:15:44;;;;;;;5.13;2.47;;;;;;;;;;5034020;28;100165;-74
2022/01/20 06:18:19;;;;;;;6.75;3.30;;;;;;;;;;5032862;28;100260;-74
2022/01/20 06:20:55;;;;;;;6.60;3.30;;;;;;;;;;5001289;28;103958;-73
2022/01/20 06:23:23;;;;;;;6.40;3.58;;;;;;;;;;5033989;27;100661;-75
2022/01/20 06:25:51;;;;;;;7.40;3.50;;;;;;;;;;5033220;28;100024;-74
2022/01/20 06:28:18;;;;;;;7.60;3.60;;;;;;;;;;4999902;28;100367;-74
2022/01/20 06:30:47;;;;;;;7.25;3.40;;;;;;;;;;5033154;28;100797;-74
2022/01/20 06:33:14;;;;;;;6.68;3.33;;;;;;;;;;5033364;28;100194;-74
2022/01/20 06:35:48;;;;;;;6.35;3.40;;;;;;;;;;4987117;28;100129;-75
2022/01/20 06:38:15;;;;;;;6.05;3.45;;;;;;;;;;5016481;28;100198;-74
2022/01/20 06:40:42;;;;;;;7.75;4.07;;;;;;;;;;5032825;28;101257;-75
2022/01/20 06:43:12;;;;;;;8.60;3.72;;;;;;;;;;5033098;28;100215;-74
2022/01/20 06:45:40;;;;;;;7.45;3.92;;;;;;;;;;5016808;28;100092;-74
2022/01/20 06:48:10;;;;;;;7.03;3.45;;;;;;;;;;5000131;28;100233;-75
2022/01/20 06:50:52;;;;;;;5.45;3.30;;;;;;;;;;5021845;28;102642;-74
2022/01/20 06:53:19;;;;;;;7.82;3.80;;;;;;;;;;5013178;28;100121;-74
2022/01/20 06:55:46;;;;;;;8.68;3.97;;;;;;;;;;4979868;28;100135;-74
2022/01/20 06:58:13;;;;;;;8.90;3.83;;;;;;;;;;5012569;28;100302;-74
2022/01/20 07:00:40;;;;;;;7.95;3.88;;;;;;;;;;4995969;28;100837;-74
2022/01/20 07:03:10;;;;;;;8.02;4.25;;;;;;;;;;5030766;28;101482;-76
2022/01/20 07:05:41;;;;;;;8.43;3.53;;;;;;;;;;5016759;28;100098;-75
2022/01/20 07:08:08;;;;;;;6.72;3.38;;;;;;;;;;5015887;28;100262;-74
2022/01/20 07:10:34;;;;;;;6.95;3.05;;;;;;;;;;5015430;28;101108;-74
2022/01/20 07:13:05;;;;;;;7.68;3.63;;;;;;;;;;4993721;28;99961;-72
2022/01/20 07:15:31;;;;;;;7.28;3.38;;;;;;;;;;5013190;28;99974;-73
2022/01/20 07:17:59;;;;;;;6.03;3.03;;;;;;;;;;5015901;28;100169;-73
2022/01/20 07:20:27;;;;;;;7.47;3.67;;;;;;;;;;5032009;28;100581;-73
2022/01/20 07:23:10;;;;;;;7.27;3.10;;;;;;;;;;5033044;28;100102;-72
2022/01/20 07:25:53;;;;;;;5.07;3.00;;;;;;;;;;5018022;28;100229;-73
2022/01/20 07:28:21;;;;;;;6.90;3.40;;;;;;;;;;4999275;28;100253;-73
2022/01/20 07:30:48;;;;;;;7.30;4.03;;;;;;;;;;5015798;28;100577;-73
2022/01/20 07:33:15;;;;;;;6.50;3.35;;;;;;;;;;5032363;28;100070;-73
2022/01/20 07:35:46;;;;;;;9.77;3.55;;;;;;;;;;5006895;28;100045;-74
2022/01/20 07:38:16;;;;;;;9.27;3.88;;;;;;;;;;5000918;28;100371;-73
2022/01/20 07:40:43;;;;;;;7.93;3.58;;;;;;;;;;5012776;28;100892;-73
2022/01/20 07:43:10;;;;;;;6.50;3.30;;;;;;;;;;5017008;28;100083;-75
2022/01/20 07:45:53;;;;;;;7.05;3.53;;;;;;;;;;5032086;28;100220;-74
2022/01/20 07:48:28;;;;;;;6.80;3.55;;;;;;;;;;4999525;28;100153;-74
2022/01/20 07:51:05;;;;;;;8.30;3.80;;;;;;;;;;5022434;28;102448;-73
2022/01/20 07:53:34;;;;;;;8.75;3.95;;;;;;;;;;4996131;28;100232;-73
2022/01/20 07:56:02;;;;;;;8.00;4.05;;;;;;;;;;5012473;28;99955;-74
2022/01/20 07:58:29;;;;;;;5.57;3.17;;;;;;;;;;5023021;28;100219;-74
2022/01/20 08:00:56;;;;;;;9.75;3.83;;;;;;;;;;4997014;28;102879;-73
2022/01/20 08:03:25;;;;;;;8.52;3.35;;;;;;;;;;5013608;28;100056;-73
2022/01/20 08:06:02;;;;;;;6.82;2.90;;;;;;;;;;4998335;28;100271;-73
2022/01/20 08:08:33;;;;;;;6.80;3.20;;;;;;;;;;4998068;28;101686;-73
2022/01/20 08:11:32;;;;;;;7.30;3.33;;;;;;;;;;4976943;28;102142;-74
2022/01/20 08:14:25;;;;;;;4.70;2.25;;;;;;;;;;5013202;27;100113;-74
2022/01/20 08:16:52;;;;;;;7.03;3.00;;;;;;;;;;5010595;28;100092;-74
2022/01/20 08:19:20;;;;;;;9.50;4.05;;;;;;;;;;5010057;28;101512;-74
2022/01/20 08:21:47;;;;;;;7.18;3.08;;;;;;;;;;5009630;28;100650;-74
2022/01/20 08:24:14;;;;;;;6.10;3.35;;;;;;;;;;4994826;28;100117;-74
2022/01/20 08:26:41;;;;;;;9.25;3.95;;;;;;;;;;5011519;28;100216;-74
2022/01/20 08:29:08;;;;;;;9.27;4.00;;;;;;;;;;5013151;28;100175;-74
2022/01/20 08:31:35;;;;;;;9.07;3.85;;;;;;;;;;5048965;27;100559;-75
2022/01/20 08:34:18;;;;;;;8.77;4.05;;;;;;;;;;5018872;28;100382;-74
2022/01/20 08:37:14;;;;;;;9.80;4.28;;;;;;;;;;5030575;28;100279;-74
2022/01/20 08:39:42;;;;;;;9.15;3.85;;;;;;;;;;4997633;28;100151;-73
2022/01/20 08:42:09;;;;;;;9.85;4.03;;;;;;;;;;5013253;28;100540;-73
2022/01/20 08:44:36;;;;;;;7.78;3.42;;;;;;;;;;4998178;28;100513;-75
2022/01/20 08:47:04;;;;;;;7.80;3.28;;;;;;;;;;4997204;28;100101;-74
2022/01/20 08:49:31;;;;;;;6.38;2.92;;;;;;;;;;5014559;28;101877;-74
2022/01/20 08:52:00;;;;;;;6.72;3.13;;;;;;;;;;5012288;28;100626;-74
2022/01/20 08:54:29;;;;;;;6.60;3.25;;;;;;;;;;5016665;28;100739;-74
2022/01/20 08:57:05;;;;;;;8.00;3.38;;;;;;;;;;5032673;28;100592;-74
2022/01/20 08:59:33;;;;;;;7.07;2.85;;;;;;;;;;5032348;28;100430;-73
2022/01/20 09:02:01;;;;;;;5.50;2.30;;;;;;;;;;5012734;28;100748;-73
2022/01/20 09:04:28;;;;;;;8.13;2.67;;;;;;;;;;5014303;28;100189;-73
2022/01/20 09:07:16;;;;;;;5.95;2.83;;;;;;;;;;4982394;28;100220;-74
2022/01/20 09:09:46;;;;;;;7.82;2.53;;;;;;;;;;4979854;28;100277;-74
2022/01/20 09:15:27;;;;;;;5.15;2.45;;;;;;;;;;4996995;28;101301;-73
2022/01/20 09:15:28;;;;;;;4.35;2.22;;;;;;;;;;5006292;28;101932;-73
2022/01/20 09:18:11;;;;;;;5.53;1.80;;;;;;;;;;5007391;28;100111;-73
2022/01/20 09:20:45;;;;;;;5.20;1.67;;;;;;;;;;5032233;28;102452;-74
2022/01/20 09:23:12;;;;;;;6.38;1.60;;;;;;;;;;4998747;28;100800;-74
2022/01/20 09:25:40;;;;;;;7.18;1.83;;;;;;;;;;5033325;28;100114;-74
2022/01/20 09:28:07;;;;;;;5.50;1.48;;;;;;;;;;5016040;28;100101;-74
2022/01/20 09:30:36;;;;;;;5.32;1.40;;;;;;;;;;5015040;28;101064;-74
2022/01/20 09:35:36;;;;;;;4.72;1.60;;;;;;;;;;5015053;28;100186;-74
2022/01/20 09:38:04;;;;;;;5.80;1.73;;;;;;;;;;5015918;28;100223;-72
2022/01/20 09:40:32;;;;;;;7.40;1.58;;;;;;;;;;4996769;28;100555;-73
2022/01/20 09:43:12;;;;;;;6.72;1.58;;;;;;;;;;4994226;28;104135;-73
2022/01/20 09:45:39;;;;;;;4.72;1.38;;;;;;;;;;5011914;28;100519;-73
2022/01/20 09:48:07;;;;;;;4.78;1.48;;;;;;;;;;4995640;28;100215;-74
2022/01/20 09:50:52;;;;;;;6.05;1.52;;;;;;;;;;5012793;28;100253;-74
2022/01/20 09:53:45;;;;;;;5.47;1.40;;;;;;;;;;5032248;28;100535;-74
2022/01/20 09:56:27;;;;;;;4.72;1.00;;;;;;;;;;5021938;28;100210;-74
2022/01/20 09:58:53;;;;;;;5.40;1.52;;;;;;;;;;5013438;28;100163;-74
2022/01/20 10:01:34;;;;;;;5.63;1.30;;;;;;;;;;5017694;28;100831;-74
2022/01/20 10:04:02;;;;;;;5.82;1.10;;;;;;;;;;5031640;28;101099;-74
2022/01/20 10:06:29;;;;;;;5.43;1.13;;;;;;;;;;5027964;28;100159;-73
2022/01/20 10:09:10;;;;;;;6.22;1.20;;;;;;;;;;5017350;28;100161;-73
2022/01/20 10:12:14;;;;;;;5.70;2.03;;;;;;;;;;5011659;28;100362;-74
2022/01/20 10:15:11;;;;;;;5.35;1.70;;;;;;;;;;5014483;28;100875;-73
2022/01/20 10:18:04;;;;;;;5.13;1.20;;;;;;;;;;5028056;28;100482;-74
2022/01/20 10:20:31;;;;;;;6.88;1.23;;;;;;;;;;5032502;28;100003;-73
2022/01/20 10:23:03;;;;;;;5.50;1.00;;;;;;;;;;4999410;28;103832;-74
2022/01/20 10:25:40;;;;;;;5.10;1.10;;;;;;;;;;5027237;28;101883;-73
2022/01/20 10:28:19;;;;;;;3.67;1.13;;;;;;;;;;5031433;28;100565;-73
2022/01/20 10:30:49;;;;;;;7.38;1.30;;;;;;;;;;5016402;28;100147;-73
2022/01/20 10:33:16;;;;;;;6.28;1.30;;;;;;;;;;4996726;28;100350;-73
2022/01/20 10:35:45;;;;;;;5.97;1.05;;;;;;;;;;5012807;28;102351;-73
2022/01/20 10:38:32;;;;;;;5.97;1.05;;;;;;;;;;5030388;28;100440;-73
2022/01/20 10:41:05;;;;;;;5.68;1.02;;;;;;;;;;4999700;28;101220;-73
2022/01/20 10:43:36;;;;;;;5.50;1.40;;;;;;;;;;5014175;28;100252;-73
2022/01/20 10:46:24;;;;;;;2.95;1.27;;;;;;;;;;5016507;28;101097;-74
2022/01/20 10:48:59;;;;;;;6.45;1.08;;;;;;;;;;4997127;28;102647;-74
2022/01/20 10:51:30;;;;;;;7.25;1.15;;;;;;;;;;4997943;28;100187;-74
2022/01/20 10:54:03;;;;;;;3.63;1.08;;;;;;;;;;4995894;28;100931;-73
2022/01/20 10:56:47;;;;;;;3.78;1.00;;;;;;;;;;4997652;28;101042;-73
2022/01/20 10:59:14;;;;;;;4.43;1.08;;;;;;;;;;4997426;28;100254;-73
2022/01/20 11:01:41;;;;;;;2.67;0.93;;;;;;;;;;4998253;28;99952;-74
2022/01/20 11:04:12;;;;;;;4.07;1.10;;;;;;;;;;5013634;28;101431;-73
2022/01/20 11:06:40;;;;;;;2.15;0.82;;;;;;;;;;4997592;28;100550;-73
2022/01/20 11:09:27;;;;;;;3.65;1.10;;;;;;;;;;4986687;28;100053;-74
2022/01/20 11:12:17;;;;;;;4.93;1.10;;;;;;;;;;5020342;28;100322;-74
2022/01/20 11:14:56;;;;;;;3.58;0.73;;;;;;;;;;5002002;28;100132;-74
2022/01/20 11:17:26;;;;;;;2.38;0.98;;;;;;;;;;5010775;28;100753;-74
2022/01/20 11:19:56;;;;;;;7.03;1.10;;;;;;;;;;4998967;28;100101;-75
2022/01/20 11:22:22;;;;;;;6.95;1.10;;;;;;;;;;5013335;28;99973;-73
2022/01/20 11:25:23;;;;;;;3.90;0.90;;;;;;;;;;5023581;28;100167;-74
2022/01/20 11:28:07;;;;;;;5.50;1.17;;;;;;;;;;4980927;28;100761;-74
2022/01/20 11:31:04;;;;;;;2.50;0.90;;;;;;;;;;5031071;28;99978;-74
2022/01/20 11:33:38;;;;;;;4.57;0.95;;;;;;;;;;4998543;28;100126;-73
2022/01/20 11:36:08;;;;;;;5.05;1.00;;;;;;;;;;4994688;28;101431;-73
2022/01/20 11:38:59;;;;;;;5.93;1.45;;;;;;;;;;5011126;28;101315;-73
2022/01/20 11:41:34;;;;;;;3.42;1.20;;;;;;;;;;4995291;28;100461;-73
2022/01/20 11:44:12;;;;;;;5.50;2.10;;;;;;;;;;4995490;28;100139;-73
2022/01/20 11:46:43;;;;;;;1.90;0.70;;;;;;;;;;5030427;28;100310;-74
2022/01/20 11:49:12;;;;;;;2.53;0.90;;;;;;;;;;5014695;28;100602;-74
2022/01/20 11:51:58;;;;;;;3.30;1.08;;;;;;;;;;5031029;28;101911;-74
2022/01/20 11:54:29;;;;;;;1.55;0.68;;;;;;;;;;5021920;28;100048;-74
2022/01/20 11:57:13;;;;;;;3.13;0.75;;;;;;;;;;5010329;28;100662;-74
2022/01/20 11:59:46;;;;;;;2.03;0.82;;;;;;;;;;4990650;28;100624;-73
2022/01/20 12:02:46;;;;;;;4.63;0.90;;;;;;;;;;5034866;27;100147;-74
2022/01/20 12:05:29;;;;;;;3.35;1.10;;;;;;;;;;5013424;28;100160;-76
2022/01/20 12:08:22;;;;;;;2.28;0.82;;;;;;;;;;5034775;28;100161;-74
2022/01/20 12:11:08;;;;;;;3.90;1.00;;;;;;;;;;5034325;28;100664;-74
2022/01/20 12:13:51;;;;;;;4.43;0.90;;;;;;;;;;5017883;28;100135;-74
2022/01/20 12:16:19;;;;;;;3.00;1.20;;;;;;;;;;5035234;28;100106;-74
2022/01/20 12:18:50;;;;;;;6.07;1.10;;;;;;;;;;5017902;28;100343;-74
2022/01/20 12:21:17;;;;;;;2.75;0.98;;;;;;;;;;5034027;28;100665;-73
2022/01/20 12:23:45;;;;;;;5.35;1.50;;;;;;;;;;5015326;28;100224;-73
2022/01/20 12:26:12;;;;;;;4.30;1.20;;;;;;;;;;5014758;28;100159;-73
2022/01/20 12:28:39;;;;;;;3.00;1.63;;;;;;;;;;5018328;28;100238;-73
2022/01/20 12:31:06;;;;;;;4.60;0.98;;;;;;;;;;5023598;28;103003;-74
2022/01/20 12:33:35;;;;;;;4.60;1.25;;;;;;;;;;5026885;27;100227;-74
2022/01/20 12:36:03;;;;;;;4.07;1.23;;;;;;;;;;5036320;27;100101;-74
2022/01/20 12:38:40;;;;;;;3.80;1.65;;;;;;;;;;5029455;28;100179;-74
2022/01/20 12:41:14;;;;;;;7.75;1.98;;;;;;;;;;4995074;28;100676;-73
2022/01/20 12:43:44;;;;;;;2.65;1.25;;;;;;;;;;5030241;28;100264;-73
2022/01/20 12:46:13;;;;;;;3.35;1.25;;;;;;;;;;5035473;27;100122;-74
2022/01/20 12:49:04;;;;;;;3.35;1.30;;;;;;;;;;5020823;27;102668;-73
2022/01/20 12:51:31;;;;;;;4.85;1.40;;;;;;;;;;5035074;28;100750;-73
2022/01/20 12:54:26;;;;;;;4.82;1.45;;;;;;;;;;5017358;28;100156;-74
2022/01/20 12:56:54;;;;;;;;;;;;;;;;;;5018456;28;100410;-73
2022/01/20 12:59:25;;;;;;;5.82;1.35;;;;;;;;;;5018564;27;100815;-73
2022/01/20 13:02:05;;;;;;;4.18;1.25;;;;;;;;;;5015826;28;101220;-74
2022/01/20 13:04:32;;;;;;;5.35;1.20;;;;;;;;;;4988676;28;100655;-74
2022/01/20 13:07:03;;;;;;;4.95;1.42;;;;;;;;;;5031563;27;100129;-74
2022/01/20 13:09:41;;;;;;;6.68;2.20;;;;;;;;;;5033279;28;100680;-74
2022/01/20 13:12:13;;;;;;;3.85;1.30;;;;;;;;;;5034031;27;100604;-74
2022/01/20 13:14:44;;;;;;;6.68;1.73;;;;;;;;;;5033902;28;100702;-74
2022/01/20 13:17:25;;;;;;;4.18;1.50;;;;;;;;;;5033006;28;100034;-74
2022/01/20 13:19:54;;;;;;;3.20;1.40;;;;;;;;;;5001357;28;103097;-74
2022/01/20 13:22:30;;;;;;;6.35;1.60;;;;;;;;;;5034388;28;100739;-74
2022/01/20 13:25:07;;;;;;;5.00;1.58;;;;;;;;;;5033654;28;101775;-74
2022/01/20 13:27:35;;;;;;;4.55;1.73;;;;;;;;;;5016335;28;100030;-75
2022/01/20 13:30:03;;;;;;;4.40;1.45;;;;;;;;;;5014640;28;100342;-74
2022/01/20 13:32:33;;;;;;;3.72;1.45;;;;;;;;;;5031978;28;100534;-74
2022/01/20 13:35:01;;;;;;;6.80;2.05;;;;;;;;;;5022337;28;100091;-74
2022/01/20 13:37:30;;;;;;;7.53;2.17;;;;;;;;;;5013829;28;100303;-73
2022/01/20 13:39:59;;;;;;;8.30;2.47;;;;;;;;;;5011617;28;100370;-73
2022/01/20 13:42:45;;;;;;;5.20;1.50;;;;;;;;;;5033385;28;100698;-73
2022/01/20 13:45:17;;;;;;;9.00;1.90;;;;;;;;;;5032359;28;100556;-73
2022/01/20 13:47:52;;;;;;;6.45;2.08;;;;;;;;;;5034253;28;100243;-75
2022/01/20 13:50:27;;;;;;;6.85;1.77;;;;;;;;;;5031636;28;103263;-73
2022/01/20 13:52:54;;;;;;;5.55;1.90;;;;;;;;;;5000706;28;103849;-72
2022/01/20 13:55:24;;;;;;;8.38;2.22;;;;;;;;;;5033615;28;100201;-73
2022/01/20 13:57:51;;;;;;;7.63;2.30;;;;;;;;;;5035274;27;100485;-74
2022/01/20 14:00:22;;;;;;;9.02;2.30;;;;;;;;;;5015791;27;100335;-72
2022/01/20 14:02:50;;;;;;;6.72;2.15;;;;;;;;;;5019094;28;102985;-74
2022/01/20 14:05:18;;;;;;;7.80;2.10;;;;;;;;;;5015231;28;100199;-74
2022/01/20 14:07:45;;;;;;;7.25;1.95;;;;;;;;;;4996783;28;100244;-72
2022/01/20 14:10:12;;;;;;;5.22;2.03;;;;;;;;;;5020993;28;101139;-73
2022/01/20 14:12:58;;;;;;;7.30;2.40;;;;;;;;;;5032283;28;100517;-73
2022/01/20 14:15:25;;;;;;;5.40;2.13;;;;;;;;;;5033690;28;100131;-73
2022/01/20 14:17:55;;;;;;;5.97;1.85;;;;;;;;;;5032683;28;100123;-74
2022/01/20 14:20:24;;;;;;;8.52;2.10;;;;;;;;;;5004140;28;100359;-74
2022/01/20 14:22:52;;;;;;;9.77;2.25;;;;;;;;;;5013911;28;100709;-73
2022/01/20 14:25:19;;;;;;;11.50;2.20;;;;;;;;;;5012944;28;99983;-74
2022/01/20 14:27:46;;;;;;;5.75;2.28;;;;;;;;;;5013171;28;100482;-73
2022/01/20 14:30:14;;;;;;;8.30;2.22;;;;;;;;;;5016117;28;101353;-74
2022/01/20 14:32:41;;;;;;;10.88;2.60;;;;;;;;;;5014300;28;101100;-74
2022/01/20 14:35:08;;;;;;;8.70;2.40;;;;;;;;;;4997823;28;100085;-73
2022/01/20 14:37:38;;;;;;;8.85;2.28;;;;;;;;;;5021911;28;100106;-74
2022/01/20 14:40:06;;;;;;;10.80;2.53;;;;;;;;;;4996513;28;102234;-74
2022/01/20 14:42:34;;;;;;;8.10;2.38;;;;;;;;;;5026489;28;100669;-73
2022/01/20 14:45:01;;;;;;;8.63;2.42;;;;;;;;;;5014611;28;101832;-74
2022/01/20 14:47:28;;;;;;;7.55;3.08;;;;;;;;;;4979883;28;100113;-73
2022/01/20 14:49:55;;;;;;;5.80;2.17;;;;;;;;;;5028908;28;100395;-74
2022/01/20 14:52:22;;;;;;;7.63;2.22;;;;;;;;;;5015610;28;100582;-74
2022/01/20 14:54:49;;;;;;;8.88;2.55;;;;;;;;;;5015974;28;99999;-73
2022/01/20 14:57:16;;;;;;;11.23;2.33;;;;;;;;;;5014910;28;100079;-72
2022/01/20 14:59:58;;;;;;;12.45;2.05;;;;;;;;;;5020236;28;100453;-73
2022/01/20 15:02:24;;;;;;;6.13;1.95;;;;;;;;;;4994917;28;101567;-73
2022/01/20 15:04:52;;;;;;;11.23;2.72;;;;;;;;;;5019403;28;101715;-74
2022/01/20 15:07:19;;;;;;;8.75;2.00;;;;;;;;;;5012391;28;100708;-74
2022/01/20 15:09:47;;;;;;;5.90;1.90;;;;;;;;;;5013194;28;100299;-73
2022/01/20 15:12:14;;;;;;;5.30;2.15;;;;;;;;;;5030288;28;101202;-72
2022/01/20 15:14:41;;;;;;;5.95;2.20;;;;;;;;;;5013204;28;100181;-73
2022/01/20 15:17:08;;;;;;;7.30;1.83;;;;;;;;;;5013703;28;100516;-72
2022/01/20 15:19:35;;;;;;;7.65;1.90;;;;;;;;;;5014669;28;103179;-74
2022/01/20 15:22:02;;;;;;;9.90;1.90;;;;;;;;;;5012672;28;100613;-74
2022/01/20 15:24:32;;;;;;;7.53;2.03;;;;;;;;;;4995997;28;100181;-73
2022/01/20 15:26:59;;;;;;;6.55;1.63;;;;;;;;;;5016223;28;100140;-73
2022/01/20 15:29:30;;;;;;;6.45;2.08;;;;;;;;;;4995552;28;100735;-74
2022/01/20 15:31:57;;;;;;;2.92;1.40;;;;;;;;;;5012789;28;100573;-74
2022/01/20 15:34:24;;;;;;;7.80;1.95;;;;;;;;;;4997997;28;100168;-74
2022/01/20 15:36:51;;;;;;;8.18;2.47;;;;;;;;;;5022708;28;101874;-74
2022/01/20 15:39:22;;;;;;;6.55;2.28;;;;;;;;;;4995751;28;100885;-74
2022/01/20 15:41:49;;;;;;;6.32;2.03;;;;;;;;;;5019792;28;101078;-74
2022/01/20 15:44:17;;;;;;;5.85;2.03;;;;;;;;;;5012291;28;99978;-75
2022/01/20 15:46:45;;;;;;;4.43;1.55;;;;;;;;;;5012791;28;100277;-74
2022/01/20 15:49:12;;;;;;;4.93;1.77;;;;;;;;;;5032938;28;100320;-74
2022/01/20 15:51:39;;;;;;;8.35;1.50;;;;;;;;;;4996396;28;100572;-75
2022/01/20 15:54:09;;;;;;;8.40;1.60;;;;;;;;;;4994938;28;100025;-74
2022/01/20 15:56:36;;;;;;;3.30;1.35;;;;;;;;;;4994565;28;100178;-74
2022/01/20 15:59:04;;;;;;;8.00;1.38;;;;;;;;;;5011193;28;100286;-74
2022/01/20 16:01:32;;;;;;;4.65;1.30;;;;;;;;;;4997206;28;101042;-74
2022/01/20 16:04:00;;;;;;;7.38;1.88;;;;;;;;;;5011404;28;100089;-74
2022/01/20 16:06:27;;;;;;;9.77;1.98;;;;;;;;;;5017932;28;101351;-74
2022/01/20 16:08:54;;;;;;;5.40;1.75;;;;;;;;;;4996763;28;100281;-74
2022/01/20 16:11:21;;;;;;;9.18;2.70;;;;;;;;;;5013775;28;103051;-74